sensor_id;sensor_type;location;lat;lon;timestamp;pressure;altitude;pressure_sealevel;temperature;humidity
66689;BME280;53587;59.318;18.084;2022-08-19T00:01:02;101551.88;;;18.28;nan
66689;BME280;53587;59.318;18.084;2022-08-19T00:03:28;101547.94;;;17.40;nan
66689;BME280;53587;59.318;18.084;2022-08-19T00:05:53;101552.38;;;14.93;nan
66689;BME280;53587;59.318;18.084;2022-08-19T00:08:18;101553.03;;;17.74;nan
66689;BME280;53587;59.318;18.084;2022-08-19T00:10:43;101550.41;;;18.00;nan
66689;BME280;53587;59.318;18.084;2022-08-19T00:13:10;101547.09;;;15.65;nan
66689;BME280;53587;59.318;18.084;2022-08-19T00:15:36;101540.63;;;17.18;nan
66689;BME280;53587;59.318;18.084;2022-08-19T00:18:01;101550.53;;;18.46;nan
66689;BME280;53587;59.318;18.084;2022-08-19T00:20:27;101540.63;;;17.18;nan
66689;BME280;53587;59.318;18.084;2022-08-19T00:22:52;101548.97;;;15.82;nan
66689;BME280;53587;59.318;18.084;2022-08-19T00:25:17;101542.97;;;17.95;nan
66689;BME280;53587;59.318;18.084;2022-08-19T00:27:43;101537.66;;;17.83;nan
66689;BME280;53587;59.318;18.084;2022-08-19T00:30:08;101548.16;;;15.03;nan
66689;BME280;53587;59.318;18.084;2022-08-19T00:32:35;101549.59;;;17.41;nan
66689;BME280;53587;59.318;18.084;2022-08-19T00:35:01;101546.63;;;18.27;nan
66689;BME280;53587;59.318;18.084;2022-08-19T00:37:26;101534.19;;;16.10;nan
66689;BME280;53587;59.318;18.084;2022-08-19T00:39:52;101540.97;;;16.89;nan
66689;BME280;53587;59.318;18.084;2022-08-19T00:42:18;101531.75;;;18.28;nan
66689;BME280;53587;59.318;18.084;2022-08-19T00:44:44;101520.72;;;17.54;nan
66689;BME280;53587;59.318;18.084;2022-08-19T00:47:09;101524.78;;;14.83;nan
66689;BME280;53587;59.318;18.084;2022-08-19T00:49:37;101519.13;;;17.63;nan
66689;BME280;53587;59.318;18.084;2022-08-19T00:52:12;101521.28;;;18.30;nan
66689;BME280;53587;59.318;18.084;2022-08-19T00:54:39;101523.06;;;15.77;nan
66689;BME280;53587;59.318;18.084;2022-08-19T00:57:04;101524.31;;;17.06;nan
66689;BME280;53587;59.318;18.084;2022-08-19T00:59:31;101523.97;;;18.14;nan
66689;BME280;53587;59.318;18.084;2022-08-19T01:01:56;101519.16;;;16.50;nan
66689;BME280;53587;59.318;18.084;2022-08-19T01:04:21;101520.69;;;16.36;nan
66689;BME280;53587;59.318;18.084;2022-08-19T01:06:47;101521.75;;;18.01;nan
66689;BME280;53587;59.318;18.084;2022-08-19T01:09:12;101522.00;;;17.94;nan
66689;BME280;53587;59.318;18.084;2022-08-19T01:11:38;101530.41;;;15.27;nan
66689;BME280;53587;59.318;18.084;2022-08-19T01:14:05;101525.31;;;17.33;nan
66689;BME280;53587;59.318;18.084;2022-08-19T01:16:32;101525.94;;;18.29;nan
66689;BME280;53587;59.318;18.084;2022-08-19T01:18:58;101524.06;;;16.16;nan
66689;BME280;53587;59.318;18.084;2022-08-19T01:22:26;101512.94;;;16.60;nan
66689;BME280;53587;59.318;18.084;2022-08-19T01:24:18;101507.47;;;18.40;nan
66689;BME280;53587;59.318;18.084;2022-08-19T01:26:43;101507.38;;;17.30;nan
66689;BME280;53587;59.318;18.084;2022-08-19T01:29:10;101508.94;;;15.46;nan
66689;BME280;53587;59.318;18.084;2022-08-19T01:31:35;101512.25;;;17.76;nan
66689;BME280;53587;59.318;18.084;2022-08-19T01:34:01;101511.31;;;18.24;nan
66689;BME280;53587;59.318;18.084;2022-08-19T01:36:32;101510.50;;;15.59;nan
66689;BME280;53587;59.318;18.084;2022-08-19T01:38:57;101510.56;;;17.06;nan
66689;BME280;53587;59.318;18.084;2022-08-19T01:41:23;101512.44;;;18.38;nan
66689;BME280;53587;59.318;18.084;2022-08-19T01:43:49;101509.47;;;17.08;nan
66689;BME280;53587;59.318;18.084;2022-08-19T01:46:15;101516.47;;;15.78;nan
66689;BME280;53587;59.318;18.084;2022-08-19T01:48:41;101523.59;;;17.85;nan
66689;BME280;53587;59.318;18.084;2022-08-19T01:51:07;101514.03;;;18.08;nan
66689;BME280;53587;59.318;18.084;2022-08-19T01:53:33;101517.69;;;15.43;nan
66689;BME280;53587;59.318;18.084;2022-08-19T01:55:58;101516.91;;;17.12;nan
66689;BME280;53587;59.318;18.084;2022-08-19T01:58:25;101516.28;;;18.27;nan
66689;BME280;53587;59.318;18.084;2022-08-19T02:00:54;101510.63;;;16.79;nan
66689;BME280;53587;59.318;18.084;2022-08-19T02:03:19;101519.69;;;15.92;nan
66689;BME280;53587;59.318;18.084;2022-08-19T02:05:44;101518.63;;;17.82;nan
66689;BME280;53587;59.318;18.084;2022-08-19T02:08:10;101511.00;;;18.05;nan
66689;BME280;53587;59.318;18.084;2022-08-19T02:10:38;101507.53;;;15.44;nan
66689;BME280;53587;59.318;18.084;2022-08-19T02:13:03;101503.38;;;17.05;nan
66689;BME280;53587;59.318;18.084;2022-08-19T02:15:28;101514.94;;;18.45;nan
66689;BME280;53587;59.318;18.084;2022-08-19T02:17:54;101501.25;;;17.18;nan
66689;BME280;53587;59.318;18.084;2022-08-19T02:20:19;101514.09;;;15.21;nan
66689;BME280;53587;59.318;18.084;2022-08-19T02:22:44;101501.75;;;17.68;nan
66689;BME280;53587;59.318;18.084;2022-08-19T02:25:11;101497.25;;;18.25;nan
66689;BME280;53587;59.318;18.084;2022-08-19T02:27:36;101503.00;;;15.77;nan
66689;BME280;53587;59.318;18.084;2022-08-19T02:30:03;101505.34;;;16.78;nan
66689;BME280;53587;59.318;18.084;2022-08-19T02:32:28;101509.09;;;18.26;nan
66689;BME280;53587;59.318;18.084;2022-08-19T02:34:55;101501.06;;;17.35;nan
66689;BME280;53587;59.318;18.084;2022-08-19T02:37:20;101508.78;;;14.63;nan
66689;BME280;53587;59.318;18.084;2022-08-19T02:40:04;101502.31;;;17.65;nan
66689;BME280;53587;59.318;18.084;2022-08-19T02:42:30;101492.59;;;18.36;nan
66689;BME280;53587;59.318;18.084;2022-08-19T02:44:56;101500.75;;;15.74;nan
66689;BME280;53587;59.318;18.084;2022-08-19T02:47:21;101508.09;;;16.78;nan
66689;BME280;53587;59.318;18.084;2022-08-19T02:49:46;101506.34;;;18.31;nan
66689;BME280;53587;59.318;18.084;2022-08-19T02:52:15;101504.06;;;17.33;nan
66689;BME280;53587;59.318;18.084;2022-08-19T02:54:40;101517.78;;;14.58;nan
66689;BME280;53587;59.318;18.084;2022-08-19T02:57:05;101518.19;;;17.42;nan
66689;BME280;53587;59.318;18.084;2022-08-19T02:59:31;101507.47;;;18.35;nan
66689;BME280;53587;59.318;18.084;2022-08-19T03:01:56;101513.06;;;15.88;nan
66689;BME280;53587;59.318;18.084;2022-08-19T03:04:21;101512.72;;;16.67;nan
66689;BME280;53587;59.318;18.084;2022-08-19T03:06:48;101514.63;;;18.26;nan
66689;BME280;53587;59.318;18.084;2022-08-19T03:09:14;101514.63;;;17.47;nan
66689;BME280;53587;59.318;18.084;2022-08-19T03:11:39;101511.41;;;14.70;nan
66689;BME280;53587;59.318;18.084;2022-08-19T03:14:05;101517.66;;;17.45;nan
66689;BME280;53587;59.318;18.084;2022-08-19T03:16:33;101513.56;;;18.47;nan
66689;BME280;53587;59.318;18.084;2022-08-19T03:18:58;101505.94;;;15.92;nan
66689;BME280;53587;59.318;18.084;2022-08-19T03:21:27;101511.28;;;16.64;nan
66689;BME280;53587;59.318;18.084;2022-08-19T03:23:54;101509.09;;;18.15;nan
66689;BME280;53587;59.318;18.084;2022-08-19T03:26:19;101509.38;;;17.45;nan
66689;BME280;53587;59.318;18.084;2022-08-19T03:28:44;101513.84;;;14.54;nan
66689;BME280;53587;59.318;18.084;2022-08-19T03:31:16;101511.81;;;17.31;nan
66689;BME280;53587;59.318;18.084;2022-08-19T03:33:41;101510.22;;;18.45;nan
66689;BME280;53587;59.318;18.084;2022-08-19T03:36:08;101503.16;;;16.15;nan
66689;BME280;53587;59.318;18.084;2022-08-19T03:38:35;101513.03;;;16.43;nan
66689;BME280;53587;59.318;18.084;2022-08-19T03:41:07;101517.31;;;18.00;nan
66689;BME280;53587;59.318;18.084;2022-08-19T03:43:36;101507.22;;;17.58;nan
66689;BME280;53587;59.318;18.084;2022-08-19T03:46:03;101512.03;;;14.60;nan
66689;BME280;53587;59.318;18.084;2022-08-19T03:48:29;101511.50;;;17.28;nan
66689;BME280;53587;59.318;18.084;2022-08-19T03:50:55;101519.59;;;18.29;nan
66689;BME280;53587;59.318;18.084;2022-08-19T03:53:20;101509.78;;;16.79;nan
66689;BME280;53587;59.318;18.084;2022-08-19T03:55:46;101514.72;;;15.89;nan
66689;BME280;53587;59.318;18.084;2022-08-19T03:58:11;101521.63;;;17.80;nan
66689;BME280;53587;59.318;18.084;2022-08-19T04:00:36;101520.19;;;18.67;nan
66689;BME280;53587;59.318;18.084;2022-08-19T04:03:01;101529.91;;;15.97;nan
66689;BME280;53587;59.318;18.084;2022-08-19T04:05:27;101530.88;;;16.68;nan
66689;BME280;53587;59.318;18.084;2022-08-19T04:07:53;101525.66;;;18.21;nan
66689;BME280;53587;59.318;18.084;2022-08-19T04:10:19;101523.72;;;17.42;nan
66689;BME280;53587;59.318;18.084;2022-08-19T04:12:45;101532.25;;;15.05;nan
66689;BME280;53587;59.318;18.084;2022-08-19T04:15:11;101536.13;;;18.18;nan
66689;BME280;53587;59.318;18.084;2022-08-19T04:17:36;101533.97;;;18.82;nan
66689;BME280;53587;59.318;18.084;2022-08-19T04:20:02;101527.59;;;16.71;nan
66689;BME280;53587;59.318;18.084;2022-08-19T04:22:27;101533.94;;;18.31;nan
66689;BME280;53587;59.318;18.084;2022-08-19T04:24:52;101533.41;;;19.22;nan
66689;BME280;53587;59.318;18.084;2022-08-19T04:27:17;101534.22;;;17.55;nan
66689;BME280;53587;59.318;18.084;2022-08-19T04:29:43;101532.31;;;15.71;nan
66689;BME280;53587;59.318;18.084;2022-08-19T04:32:08;101540.06;;;18.79;nan
66689;BME280;53587;59.318;18.084;2022-08-19T04:34:33;101542.81;;;18.85;nan
66689;BME280;53587;59.318;18.084;2022-08-19T04:36:59;101544.06;;;16.93;nan
66689;BME280;53587;59.318;18.084;2022-08-19T04:39:26;101554.22;;;16.93;nan
66689;BME280;53587;59.318;18.084;2022-08-19T04:42:18;101555.47;;;19.37;nan
66689;BME280;53587;59.318;18.084;2022-08-19T04:45:02;101547.13;;;18.08;nan
66689;BME280;53587;59.318;18.084;2022-08-19T04:47:29;101549.16;;;15.97;nan
66689;BME280;53587;59.318;18.084;2022-08-19T04:49:55;101555.00;;;18.99;nan
66689;BME280;53587;59.318;18.084;2022-08-19T04:52:20;101550.50;;;19.34;nan
66689;BME280;53587;59.318;18.084;2022-08-19T04:54:45;101551.47;;;17.35;nan
66689;BME280;53587;59.318;18.084;2022-08-19T04:57:10;101520.28;;;15.94;nan
66689;BME280;53587;59.318;18.084;2022-08-19T04:59:36;101523.97;;;17.99;nan
66689;BME280;53587;59.318;18.084;2022-08-19T05:02:02;101516.19;;;19.45;nan
66689;BME280;53587;59.318;18.084;2022-08-19T05:04:28;101519.06;;;18.83;nan
66689;BME280;53587;59.318;18.084;2022-08-19T05:06:56;101520.84;;;16.51;nan
66689;BME280;53587;59.318;18.084;2022-08-19T05:09:22;101520.38;;;15.60;nan
66689;BME280;53587;59.318;18.084;2022-08-19T05:11:47;101521.78;;;19.20;nan
66689;BME280;53587;59.318;18.084;2022-08-19T05:14:13;101518.94;;;19.45;nan
66689;BME280;53587;59.318;18.084;2022-08-19T05:16:38;101517.97;;;17.59;nan
66689;BME280;53587;59.318;18.084;2022-08-19T05:19:04;101519.56;;;16.04;nan
66689;BME280;53587;59.318;18.084;2022-08-19T05:21:48;101522.41;;;18.55;nan
66689;BME280;53587;59.318;18.084;2022-08-19T05:24:32;101504.59;;;19.43;nan
66689;BME280;53587;59.318;18.084;2022-08-19T05:26:59;101507.03;;;17.80;nan
66689;BME280;53587;59.318;18.084;2022-08-19T05:29:25;101497.25;;;16.01;nan
66689;BME280;53587;59.318;18.084;2022-08-19T05:31:51;101502.47;;;18.11;nan
66689;BME280;53587;59.318;18.084;2022-08-19T05:34:18;101497.31;;;19.68;nan
66689;BME280;53587;59.318;18.084;2022-08-19T05:36:47;101510.22;;;18.35;nan
66689;BME280;53587;59.318;18.084;2022-08-19T05:39:15;101503.22;;;16.20;nan
66689;BME280;53587;59.318;18.084;2022-08-19T05:41:44;101507.66;;;16.91;nan
66689;BME280;53587;59.318;18.084;2022-08-19T05:44:10;101505.91;;;19.61;nan
66689;BME280;53587;59.318;18.084;2022-08-19T05:46:36;101509.13;;;18.98;nan
66689;BME280;53587;59.318;18.084;2022-08-19T05:49:02;101500.34;;;16.69;nan
66689;BME280;53587;59.318;18.084;2022-08-19T05:51:29;101505.22;;;15.80;nan
66689;BME280;53587;59.318;18.084;2022-08-19T05:53:54;101506.88;;;19.21;nan
66689;BME280;53587;59.318;18.084;2022-08-19T05:56:19;101504.31;;;19.45;nan
66689;BME280;53587;59.318;18.084;2022-08-19T05:58:45;101498.91;;;17.42;nan
66689;BME280;53587;59.318;18.084;2022-08-19T06:01:11;101506.38;;;16.06;nan
66689;BME280;53587;59.318;18.084;2022-08-19T06:03:37;101508.03;;;18.73;nan
66689;BME280;53587;59.318;18.084;2022-08-19T06:06:04;101500.56;;;19.86;nan
66689;BME280;53587;59.318;18.084;2022-08-19T06:08:29;101499.44;;;18.23;nan
66689;BME280;53587;59.318;18.084;2022-08-19T06:10:54;101490.97;;;16.33;nan
66689;BME280;53587;59.318;18.084;2022-08-19T06:13:20;101494.34;;;15.63;nan
66689;BME280;53587;59.318;18.084;2022-08-19T06:15:46;101503.91;;;18.71;nan
66689;BME280;53587;59.318;18.084;2022-08-19T06:18:12;101486.88;;;19.44;nan
66689;BME280;53587;59.318;18.084;2022-08-19T06:20:37;101482.63;;;18.19;nan
66689;BME280;53587;59.318;18.084;2022-08-19T06:23:03;101490.22;;;16.80;nan
66689;BME280;53587;59.318;18.084;2022-08-19T06:25:28;101486.59;;;16.09;nan
66689;BME280;53587;59.318;18.084;2022-08-19T06:27:53;101486.97;;;19.24;nan
66689;BME280;53587;59.318;18.084;2022-08-19T06:30:19;101494.06;;;19.56;nan
66689;BME280;53587;59.318;18.084;2022-08-19T06:32:44;101497.44;;;17.93;nan
66689;BME280;53587;59.318;18.084;2022-08-19T06:35:09;101491.09;;;16.48;nan
66689;BME280;53587;59.318;18.084;2022-08-19T06:37:36;101499.56;;;15.87;nan
66689;BME280;53587;59.318;18.084;2022-08-19T06:40:01;101501.91;;;19.18;nan
66689;BME280;53587;59.318;18.084;2022-08-19T06:42:26;101517.03;;;19.46;nan
66689;BME280;53587;59.318;18.084;2022-08-19T06:44:51;101514.53;;;17.90;nan
66689;BME280;53587;59.318;18.084;2022-08-19T06:47:18;101518.25;;;16.72;nan
66689;BME280;53587;59.318;18.084;2022-08-19T06:49:43;101519.19;;;15.96;nan
66689;BME280;53587;59.318;18.084;2022-08-19T06:52:09;101517.38;;;19.24;nan
66689;BME280;53587;59.318;18.084;2022-08-19T06:54:37;101517.06;;;19.30;nan
66689;BME280;53587;59.318;18.084;2022-08-19T06:57:02;101510.44;;;17.34;nan
66689;BME280;53587;59.318;18.084;2022-08-19T06:59:28;101514.81;;;16.27;nan
66689;BME280;53587;59.318;18.084;2022-08-19T07:01:58;101513.16;;;15.99;nan
66689;BME280;53587;59.318;18.084;2022-08-19T07:04:27;101515.31;;;19.55;nan
66689;BME280;53587;59.318;18.084;2022-08-19T07:07:00;101509.06;;;19.29;nan
66689;BME280;53587;59.318;18.084;2022-08-19T07:09:26;101514.47;;;17.16;nan
66689;BME280;53587;59.318;18.084;2022-08-19T07:11:52;101512.53;;;16.46;nan
66689;BME280;53587;59.318;18.084;2022-08-19T07:14:19;101512.63;;;19.35;nan
66689;BME280;53587;59.318;18.084;2022-08-19T07:16:45;101523.59;;;19.66;nan
66689;BME280;53587;59.318;18.084;2022-08-19T07:19:10;101513.38;;;17.80;nan
66689;BME280;53587;59.318;18.084;2022-08-19T07:21:36;101514.31;;;16.63;nan
66689;BME280;53587;59.318;18.084;2022-08-19T07:24:01;101521.34;;;15.93;nan
66689;BME280;53587;59.318;18.084;2022-08-19T07:26:28;101527.47;;;17.31;nan
66689;BME280;53587;59.318;18.084;2022-08-19T07:28:54;101523.31;;;19.67;nan
66689;BME280;53587;59.318;18.084;2022-08-19T07:31:20;101527.91;;;18.86;nan
66689;BME280;53587;59.318;18.084;2022-08-19T07:33:46;101523.88;;;16.87;nan
66689;BME280;53587;59.318;18.084;2022-08-19T07:36:12;101530.59;;;16.09;nan
66689;BME280;53587;59.318;18.084;2022-08-19T07:38:39;101535.25;;;17.97;nan
66689;BME280;53587;59.318;18.084;2022-08-19T07:41:05;101523.59;;;19.66;nan
66689;BME280;53587;59.318;18.084;2022-08-19T07:43:31;101527.34;;;18.73;nan
66689;BME280;53587;59.318;18.084;2022-08-19T07:45:57;101514.97;;;16.75;nan
66689;BME280;53587;59.318;18.084;2022-08-19T07:48:26;101512.66;;;16.02;nan
66689;BME280;53587;59.318;18.084;2022-08-19T07:50:56;101517.91;;;18.07;nan
66689;BME280;53587;59.318;18.084;2022-08-19T07:53:22;101507.25;;;19.74;nan
66689;BME280;53587;59.318;18.084;2022-08-19T07:55:48;101514.38;;;18.53;nan
66689;BME280;53587;59.318;18.084;2022-08-19T07:58:15;101512.09;;;16.60;nan
66689;BME280;53587;59.318;18.084;2022-08-19T08:00:41;101516.53;;;17.36;nan
66689;BME280;53587;59.318;18.084;2022-08-19T08:03:06;101512.78;;;19.69;nan
66689;BME280;53587;59.318;18.084;2022-08-19T08:05:33;101505.25;;;19.04;nan
66689;BME280;53587;59.318;18.084;2022-08-19T08:08:17;101511.44;;;16.80;nan
66689;BME280;53587;59.318;18.084;2022-08-19T08:11:01;101519.03;;;17.43;nan
66689;BME280;53587;59.318;18.084;2022-08-19T08:13:26;101510.53;;;19.82;nan
66689;BME280;53587;59.318;18.084;2022-08-19T08:15:52;101520.16;;;19.08;nan
66689;BME280;53587;59.318;18.084;2022-08-19T08:18:18;101508.28;;;16.98;nan
66689;BME280;53587;59.318;18.084;2022-08-19T08:23:08;101523.41;;;18.02;nan
66689;BME280;53587;59.318;18.084;2022-08-19T08:25:54;101516.56;;;19.94;nan
66689;BME280;53587;59.318;18.084;2022-08-19T08:28:20;101510.50;;;18.59;nan
66689;BME280;53587;59.318;18.084;2022-08-19T08:30:46;101511.81;;;16.56;nan
66689;BME280;53587;59.318;18.084;2022-08-19T08:33:12;101516.38;;;15.90;nan
66689;BME280;53587;59.318;18.084;2022-08-19T08:35:39;101519.88;;;18.43;nan
66689;BME280;53587;59.318;18.084;2022-08-19T08:38:06;101506.13;;;19.70;nan
66689;BME280;53587;59.318;18.084;2022-08-19T08:40:39;101506.91;;;18.38;nan
66689;BME280;53587;59.318;18.084;2022-08-19T08:46:04;101516.88;;;18.60;nan
66689;BME280;53587;59.318;18.084;2022-08-19T08:50:56;101504.16;;;18.59;nan
66689;BME280;53587;59.318;18.084;2022-08-19T08:53:22;101503.63;;;16.66;nan
66689;BME280;53587;59.318;18.084;2022-08-19T08:55:48;101521.22;;;17.99;nan
66689;BME280;53587;59.318;18.084;2022-08-19T08:58:14;101514.41;;;19.86;nan
66689;BME280;53587;59.318;18.084;2022-08-19T09:00:46;101517.66;;;19.17;nan
66689;BME280;53587;59.318;18.084;2022-08-19T09:03:21;101516.06;;;17.06;nan
66689;BME280;53587;59.318;18.084;2022-08-19T09:08:16;101513.53;;;18.32;nan
66689;BME280;53587;59.318;18.084;2022-08-19T09:10:44;101510.50;;;19.92;nan
66689;BME280;53587;59.318;18.084;2022-08-19T09:13:13;101509.41;;;18.60;nan
66689;BME280;53587;59.318;18.084;2022-08-19T09:15:45;101505.44;;;16.55;nan
66689;BME280;53587;59.318;18.084;2022-08-19T09:18:12;101503.50;;;15.96;nan
66689;BME280;53587;59.318;18.084;2022-08-19T09:20:38;101508.59;;;18.91;nan
66689;BME280;53587;59.318;18.084;2022-08-19T09:23:03;101489.56;;;19.65;nan
66689;BME280;53587;59.318;18.084;2022-08-19T09:25:29;101495.31;;;18.21;nan
66689;BME280;53587;59.318;18.084;2022-08-19T09:27:56;101497.59;;;16.69;nan
66689;BME280;53587;59.318;18.084;2022-08-19T09:30:23;101503.06;;;18.29;nan
66689;BME280;53587;59.318;18.084;2022-08-19T09:32:49;101497.75;;;19.96;nan
66689;BME280;53587;59.318;18.084;2022-08-19T09:35:14;101502.50;;;18.73;nan
66689;BME280;53587;59.318;18.084;2022-08-19T09:37:40;101495.25;;;16.88;nan
66689;BME280;53587;59.318;18.084;2022-08-19T09:40:05;101503.00;;;15.99;nan
66689;BME280;53587;59.318;18.084;2022-08-19T09:42:32;101506.66;;;18.45;nan
66689;BME280;53587;59.318;18.084;2022-08-19T09:44:57;101492.81;;;19.88;nan
66689;BME280;53587;59.318;18.084;2022-08-19T09:47:22;101496.16;;;18.62;nan
66689;BME280;53587;59.318;18.084;2022-08-19T09:49:47;101495.38;;;16.66;nan
66689;BME280;53587;59.318;18.084;2022-08-19T09:52:13;101495.22;;;15.91;nan
66689;BME280;53587;59.318;18.084;2022-08-19T09:54:40;101497.00;;;18.53;nan
66689;BME280;53587;59.318;18.084;2022-08-19T09:57:05;101484.50;;;19.83;nan
66689;BME280;53587;59.318;18.084;2022-08-19T09:59:31;101483.19;;;18.37;nan
66689;BME280;53587;59.318;18.084;2022-08-19T10:01:56;101485.28;;;16.77;nan
66689;BME280;53587;59.318;18.084;2022-08-19T10:04:22;101481.34;;;16.03;nan
66689;BME280;53587;59.318;18.084;2022-08-19T10:06:48;101490.91;;;18.66;nan
66689;BME280;53587;59.318;18.084;2022-08-19T10:09:15;101472.94;;;19.70;nan
66689;BME280;53587;59.318;18.084;2022-08-19T10:11:41;101474.91;;;18.32;nan
66689;BME280;53587;59.318;18.084;2022-08-19T10:14:07;101477.50;;;16.69;nan
66689;BME280;53587;59.318;18.084;2022-08-19T10:16:33;101474.34;;;18.25;nan
66689;BME280;53587;59.318;18.084;2022-08-19T10:18:58;101475.66;;;19.91;nan
66689;BME280;53587;59.318;18.084;2022-08-19T10:21:25;101474.88;;;19.09;nan
66689;BME280;53587;59.318;18.084;2022-08-19T10:23:53;101481.69;;;17.14;nan
66689;BME280;53587;59.318;18.084;2022-08-19T10:26:20;101484.84;;;16.25;nan
66689;BME280;53587;59.318;18.084;2022-08-19T10:28:46;101479.63;;;18.52;nan
66689;BME280;53587;59.318;18.084;2022-08-19T10:31:18;101470.63;;;19.98;nan
66689;BME280;53587;59.318;18.084;2022-08-19T10:33:47;101482.66;;;18.61;nan
66689;BME280;53587;59.318;18.084;2022-08-19T10:36:15;101465.81;;;16.89;nan
66689;BME280;53587;59.318;18.084;2022-08-19T10:38:42;101467.69;;;16.13;nan
66689;BME280;53587;59.318;18.084;2022-08-19T10:41:14;101458.59;;;18.87;nan
66689;BME280;53587;59.318;18.084;2022-08-19T10:43:40;101463.66;;;19.56;nan
66689;BME280;53587;59.318;18.084;2022-08-19T10:46:06;101467.44;;;18.07;nan
66689;BME280;53587;59.318;18.084;2022-08-19T10:48:32;101460.78;;;16.76;nan
66689;BME280;53587;59.318;18.084;2022-08-19T10:50:58;101460.69;;;16.00;nan
66689;BME280;53587;59.318;18.084;2022-08-19T10:53:42;101457.84;;;19.52;nan
66689;BME280;53587;59.318;18.084;2022-08-19T10:56:07;101450.94;;;19.55;nan
66689;BME280;53587;59.318;18.084;2022-08-19T10:58:51;101453.38;;;17.29;nan
66689;BME280;53587;59.318;18.084;2022-08-19T11:01:16;101451.97;;;16.41;nan
66689;BME280;53587;59.318;18.084;2022-08-19T11:03:41;101452.88;;;17.32;nan
66689;BME280;53587;59.318;18.084;2022-08-19T11:06:07;101458.59;;;19.63;nan
66689;BME280;53587;59.318;18.084;2022-08-19T11:08:33;101457.72;;;19.18;nan
66689;BME280;53587;59.318;18.084;2022-08-19T11:11:00;101461.00;;;17.06;nan
66689;BME280;53587;59.318;18.084;2022-08-19T11:13:29;101462.91;;;16.36;nan
66689;BME280;53587;59.318;18.084;2022-08-19T11:15:56;101465.25;;;18.29;nan
66689;BME280;53587;59.318;18.084;2022-08-19T11:18:21;101455.19;;;19.92;nan
66689;BME280;53587;59.318;18.084;2022-08-19T11:20:47;101446.19;;;18.79;nan
66689;BME280;53587;59.318;18.084;2022-08-19T11:23:12;101453.16;;;16.88;nan
66689;BME280;53587;59.318;18.084;2022-08-19T11:25:38;101441.50;;;16.05;nan
66689;BME280;53587;59.318;18.084;2022-08-19T11:28:03;101453.41;;;18.49;nan
66689;BME280;53587;59.318;18.084;2022-08-19T11:30:29;101446.59;;;19.93;nan
66689;BME280;53587;59.318;18.084;2022-08-19T11:32:55;101440.13;;;18.67;nan
66689;BME280;53587;59.318;18.084;2022-08-19T11:35:20;101446.34;;;17.01;nan
66689;BME280;53587;59.318;18.084;2022-08-19T11:37:46;101440.94;;;16.08;nan
66689;BME280;53587;59.318;18.084;2022-08-19T11:40:12;101435.97;;;18.75;nan
66689;BME280;53587;59.318;18.084;2022-08-19T11:42:37;101447.47;;;19.78;nan
66689;BME280;53587;59.318;18.084;2022-08-19T11:45:21;101440.13;;;18.31;nan
66689;BME280;53587;59.318;18.084;2022-08-19T11:47:46;101444.03;;;16.87;nan
66689;BME280;53587;59.318;18.084;2022-08-19T11:50:12;101439.91;;;16.15;nan
66689;BME280;53587;59.318;18.084;2022-08-19T11:52:38;101443.81;;;19.33;nan
66689;BME280;53587;59.318;18.084;2022-08-19T11:55:03;101441.41;;;19.76;nan
66689;BME280;53587;59.318;18.084;2022-08-19T11:57:28;101448.66;;;17.98;nan
66689;BME280;53587;59.318;18.084;2022-08-19T11:59:54;101439.56;;;16.76;nan
66689;BME280;53587;59.318;18.084;2022-08-19T12:02:19;101450.16;;;16.24;nan
66689;BME280;53587;59.318;18.084;2022-08-19T12:04:44;101451.06;;;17.74;nan
66689;BME280;53587;59.318;18.084;2022-08-19T12:07:09;101448.69;;;19.57;nan
66689;BME280;53587;59.318;18.084;2022-08-19T12:09:35;101448.06;;;19.05;nan
66689;BME280;53587;59.318;18.084;2022-08-19T12:12:00;101432.59;;;17.01;nan
66689;BME280;53587;59.318;18.084;2022-08-19T12:14:27;101440.81;;;16.20;nan
66689;BME280;53587;59.318;18.084;2022-08-19T12:16:52;101442.34;;;18.29;nan
66689;BME280;53587;59.318;18.084;2022-08-19T12:19:18;101442.72;;;19.94;nan
66689;BME280;53587;59.318;18.084;2022-08-19T12:21:43;101436.78;;;18.91;nan
66689;BME280;53587;59.318;18.084;2022-08-19T12:24:09;101441.16;;;17.10;nan
66689;BME280;53587;59.318;18.084;2022-08-19T12:26:34;101444.16;;;16.28;nan
66689;BME280;53587;59.318;18.084;2022-08-19T12:29:00;101443.97;;;18.71;nan
66689;BME280;53587;59.318;18.084;2022-08-19T12:31:26;101444.88;;;20.03;nan
66689;BME280;53587;59.318;18.084;2022-08-19T12:33:52;101448.13;;;18.69;nan
66689;BME280;53587;59.318;18.084;2022-08-19T12:36:18;101446.63;;;16.99;nan
66689;BME280;53587;59.318;18.084;2022-08-19T12:38:43;101448.59;;;16.29;nan
66689;BME280;53587;59.318;18.084;2022-08-19T12:41:10;101437.06;;;18.94;nan
66689;BME280;53587;59.318;18.084;2022-08-19T12:43:36;101443.88;;;19.83;nan
66689;BME280;53587;59.318;18.084;2022-08-19T12:46:02;101448.13;;;18.43;nan
66689;BME280;53587;59.318;18.084;2022-08-19T12:48:29;101446.06;;;16.97;nan
66689;BME280;53587;59.318;18.084;2022-08-19T12:50:54;101441.69;;;16.26;nan
66689;BME280;53587;59.318;18.084;2022-08-19T12:53:19;101448.81;;;19.26;nan
66689;BME280;53587;59.318;18.084;2022-08-19T12:55:45;101438.38;;;19.78;nan
66689;BME280;53587;59.318;18.084;2022-08-19T12:58:10;101434.63;;;18.26;nan
66689;BME280;53587;59.318;18.084;2022-08-19T13:00:35;101436.63;;;16.88;nan
66689;BME280;53587;59.318;18.084;2022-08-19T13:03:00;101444.13;;;16.22;nan
66689;BME280;53587;59.318;18.084;2022-08-19T13:05:29;101440.78;;;17.44;nan
66689;BME280;53587;59.318;18.084;2022-08-19T13:07:55;101437.63;;;19.62;nan